Time;durP1;ratioP1;P1;durP2;ratioP2;P2;SDS_P1;SDS_P2;PMS_P1;PMS_P2;Temp;Humidity;BMP_temperature;BMP_pressure;BME280_temperature;BME280_humidity;BME280_pressure;Samples;Min_cycle;Max_cycle;Signal;HPM_P1;HPM_P2
2022/03/01 00:02:22;;;;;;;;;;;3.80;93.40;;;;;;5090214;28;19914;-74
2022/03/01 00:04:48;;;;;;;;;;;3.80;93.40;;;;;;5090617;28;19912;-74
2022/03/01 00:07:13;;;;;;;;;;;3.70;93.40;;;;;;5090777;28;19908;-73
2022/03/01 00:09:39;;;;;;;;;;;3.70;93.40;;;;;;5089055;28;19959;-74
2022/03/01 00:12:05;;;;;;;;;;;3.70;93.40;;;;;;5090467;28;19916;-74
2022/03/01 00:14:30;;;;;;;;;;;3.70;93.40;;;;;;5090222;28;19996;-74
2022/03/01 00:16:56;;;;;;;;;;;3.70;93.40;;;;;;5090311;28;19908;-73
2022/03/01 00:19:22;;;;;;;;;;;3.60;93.40;;;;;;5088888;28;19967;-74
2022/03/01 00:21:47;;;;;;;;;;;3.60;93.50;;;;;;5090304;28;19912;-74
2022/03/01 00:24:13;;;;;;;;;;;3.60;93.50;;;;;;5090265;28;20344;-73
2022/03/01 00:26:38;;;;;;;;;;;3.60;93.50;;;;;;5090256;28;19908;-73
2022/03/01 00:29:04;;;;;;;;;;;3.60;93.70;;;;;;5090098;28;20444;-74
2022/03/01 00:31:30;;;;;;;;;;;3.60;93.50;;;;;;5090034;28;19908;-74
2022/03/01 00:33:55;;;;;;;;;;;3.60;93.40;;;;;;5088973;28;20368;-74
2022/03/01 00:36:21;;;;;;;;;;;3.60;93.40;;;;;;5089815;28;20018;-74
2022/03/01 00:38:47;;;;;;;;;;;3.60;93.40;;;;;;5089840;28;20103;-74
2022/03/01 00:41:12;;;;;;;;;;;3.60;93.30;;;;;;5090391;28;20065;-73
2022/03/01 00:43:38;;;;;;;;;;;3.50;93.30;;;;;;5089894;28;19919;-74
2022/03/01 00:46:04;;;;;;;;;;;3.50;93.30;;;;;;5089672;28;19916;-74
2022/03/01 00:48:29;;;;;;;;;;;3.50;93.40;;;;;;5089732;28;19916;-74
2022/03/01 00:50:55;;;;;;;;;;;3.50;93.30;;;;;;5089786;28;19920;-73
2022/03/01 00:53:21;;;;;;;;;;;3.50;93.30;;;;;;5089527;28;19955;-74
2022/03/01 00:55:46;;;;;;;;;;;3.40;93.30;;;;;;5089585;28;20324;-73
2022/03/01 00:58:12;;;;;;;;;;;3.40;93.40;;;;;;5089303;28;19923;-74
2022/03/01 01:00:37;;;;;;;;;;;3.40;93.40;;;;;;5089190;28;19920;-74
2022/03/01 01:03:03;;;;;;;;;;;3.30;93.40;;;;;;5089441;28;19912;-73
2022/03/01 01:05:28;;;;;;;;;;;3.30;93.40;;;;;;5089312;28;19920;-73
2022/03/01 01:07:54;;;;;;;;;;;3.30;93.40;;;;;;5089431;28;20002;-74
2022/03/01 01:10:20;;;;;;;;;;;3.30;93.40;;;;;;5088040;28;19915;-74
2022/03/01 01:12:46;;;;;;;;;;;3.20;93.40;;;;;;5089163;28;19912;-74
2022/03/01 01:15:12;;;;;;;;;;;3.20;93.40;;;;;;5088067;28;19916;-73
2022/03/01 01:17:38;;;;;;;;;;;3.20;93.40;;;;;;5089295;28;19909;-73
2022/03/01 01:20:05;;;;;;;;;;;3.10;93.40;;;;;;5089157;28;20372;-74
2022/03/01 01:22:42;;;;;;;;;;;3.10;93.40;;;;;;5089139;28;19931;-74
2022/03/01 01:25:10;;;;;;;;;;;3.00;93.40;;;;;;5089096;28;19951;-74
2022/03/01 01:27:37;;;;;;;;;;;2.90;93.50;;;;;;5089029;28;20415;-73
2022/03/01 01:30:03;;;;;;;;;;;2.90;93.50;;;;;;5088862;28;19917;-74
2022/03/01 01:32:29;;;;;;;;;;;2.80;93.50;;;;;;5089181;28;20305;-74
2022/03/01 01:34:54;;;;;;;;;;;2.70;93.60;;;;;;5088771;28;19968;-74
2022/03/01 01:37:20;;;;;;;;;;;2.70;93.70;;;;;;5089021;28;20274;-74
2022/03/01 01:39:45;;;;;;;;;;;2.70;93.70;;;;;;5089391;28;19935;-74
2022/03/01 01:42:11;;;;;;;;;;;2.80;93.70;;;;;;5088862;28;19927;-73
2022/03/01 01:44:36;;;;;;;;;;;2.80;93.60;;;;;;5088674;28;20335;-73
2022/03/01 01:47:02;;;;;;;;;;;2.80;93.60;;;;;;5088688;28;20392;-73
2022/03/01 01:49:28;;;;;;;;;;;2.80;93.60;;;;;;5088686;28;19935;-74
2022/03/01 01:51:54;;;;;;;;;;;2.80;93.60;;;;;;5087234;28;19957;-74
2022/03/01 01:54:19;;;;;;;;;;;2.80;93.60;;;;;;5088656;28;20198;-73
2022/03/01 01:56:45;;;;;;;;;;;2.80;93.60;;;;;;5088977;28;20005;-73
2022/03/01 01:59:10;;;;;;;;;;;2.80;93.50;;;;;;5088503;28;19919;-73
2022/03/01 02:01:36;;;;;;;;;;;2.80;93.50;;;;;;5088412;28;19995;-73
2022/03/01 02:04:02;;;;;;;;;;;2.80;93.50;;;;;;5088308;28;19916;-73
2022/03/01 02:06:28;;;;;;;;;;;2.70;93.50;;;;;;5087267;28;19967;-74
2022/03/01 02:08:53;;;;;;;;;;;2.70;93.50;;;;;;5086978;28;19955;-73
2022/03/01 02:11:19;;;;;;;;;;;2.80;93.60;;;;;;5086999;28;20017;-73
2022/03/01 02:13:45;;;;;;;;;;;2.80;93.60;;;;;;5088351;28;19912;-73
2022/03/01 02:16:10;;;;;;;;;;;2.80;93.50;;;;;;5088320;28;20308;-73
2022/03/01 02:18:38;;;;;;;;;;;2.90;93.50;;;;;;5088260;28;20327;-73
2022/03/01 02:21:03;;;;;;;;;;;2.90;93.50;;;;;;5088272;28;20348;-74
2022/03/01 02:23:29;;;;;;;;;;;2.90;93.40;;;;;;5088249;28;19912;-73
2022/03/01 02:25:54;;;;;;;;;;;2.90;93.40;;;;;;5087959;28;19913;-73
2022/03/01 02:28:20;;;;;;;;;;;2.90;93.40;;;;;;5088130;28;19921;-73
2022/03/01 02:30:46;;;;;;;;;;;2.90;93.40;;;;;;5088143;28;19916;-73
2022/03/01 02:33:11;;;;;;;;;;;2.90;93.30;;;;;;5088189;28;19919;-73
2022/03/01 02:35:37;;;;;;;;;;;2.90;93.20;;;;;;5087960;28;20155;-73
2022/03/01 02:38:03;;;;;;;;;;;2.90;93.20;;;;;;5088037;28;20356;-73
2022/03/01 02:40:29;;;;;;;;;;;2.90;93.20;;;;;;5087034;28;20321;-73
2022/03/01 02:42:54;;;;;;;;;;;2.90;93.20;;;;;;5088087;28;19922;-73
2022/03/01 02:45:20;;;;;;;;;;;2.90;93.20;;;;;;5088030;28;19912;-73
2022/03/01 02:47:46;;;;;;;;;;;2.90;93.20;;;;;;5088030;28;19912;-73
2022/03/01 02:50:12;;;;;;;;;;;2.80;93.20;;;;;;5086644;28;19944;-73
2022/03/01 02:52:38;;;;;;;;;;;2.70;93.20;;;;;;5087972;28;19915;-74
2022/03/01 02:55:04;;;;;;;;;;;2.70;93.30;;;;;;5086981;28;19955;-73
2022/03/01 02:57:30;;;;;;;;;;;2.70;93.30;;;;;;5087820;28;19955;-74
2022/03/01 02:59:55;;;;;;;;;;;2.70;93.30;;;;;;5086672;28;19920;-74
2022/03/01 03:02:21;;;;;;;;;;;2.60;93.20;;;;;;5087902;28;19914;-73
2022/03/01 03:04:47;;;;;;;;;;;2.60;93.30;;;;;;5088119;28;20010;-73
2022/03/01 03:07:12;;;;;;;;;;;2.50;93.30;;;;;;5087856;28;20006;-74
2022/03/01 03:09:38;;;;;;;;;;;2.50;93.30;;;;;;5087726;28;20370;-72
2022/03/01 03:12:04;;;;;;;;;;;2.40;93.30;;;;;;5087691;28;19970;-73
2022/03/01 03:14:30;;;;;;;;;;;2.40;93.30;;;;;;5087759;28;19973;-74
2022/03/01 03:16:55;;;;;;;;;;;2.40;93.20;;;;;;5087756;28;20318;-74
2022/03/01 03:19:21;;;;;;;;;;;2.20;93.20;;;;;;5087728;28;19912;-73
2022/03/01 03:21:47;;;;;;;;;;;2.20;93.40;;;;;;5086371;28;20418;-73
2022/03/01 03:24:12;;;;;;;;;;;2.20;93.50;;;;;;5086284;28;20021;-73
2022/03/01 03:26:38;;;;;;;;;;;2.20;93.50;;;;;;5087600;28;19990;-73
2022/03/01 03:29:08;;;;;;;;;;;2.20;93.40;;;;;;5087532;28;19960;-73
2022/03/01 03:31:35;;;;;;;;;;;2.20;93.50;;;;;;5086354;28;20324;-73
2022/03/01 03:34:00;;;;;;;;;;;2.10;93.60;;;;;;5087607;28;20006;-73
2022/03/01 03:36:26;;;;;;;;;;;2.20;93.60;;;;;;5087507;28;20053;-74
2022/03/01 03:38:51;;;;;;;;;;;2.20;93.60;;;;;;5091227;28;19916;-73
2022/03/01 03:41:17;;;;;;;;;;;2.20;93.50;;;;;;5091157;28;19908;-73
2022/03/01 03:43:42;;;;;;;;;;;2.30;93.50;;;;;;5089902;28;20056;-73
2022/03/01 03:46:08;;;;;;;;;;;2.30;93.40;;;;;;5090927;28;19943;-73
2022/03/01 03:48:33;;;;;;;;;;;2.30;93.40;;;;;;5091054;28;20191;-73
2022/03/01 03:50:59;;;;;;;;;;;2.30;93.30;;;;;;5089740;28;20134;-73
2022/03/01 03:53:25;;;;;;;;;;;2.30;93.30;;;;;;5091401;28;20350;-73
2022/03/01 03:55:50;;;;;;;;;;;2.30;93.30;;;;;;5072705;28;19912;-73
2022/03/01 03:58:16;;;;;;;;;;;2.30;93.30;;;;;;5090731;28;19999;-73
2022/03/01 04:00:41;;;;;;;;;;;2.30;93.30;;;;;;5090834;28;19912;-73
2022/03/01 04:03:07;;;;;;;;;;;2.30;93.30;;;;;;5090919;28;19923;-73
2022/03/01 04:05:34;;;;;;;;;;;2.20;93.30;;;;;;5090578;28;20360;-73
2022/03/01 04:08:00;;;;;;;;;;;2.10;93.40;;;;;;5090614;28;19912;-73
2022/03/01 04:10:26;;;;;;;;;;;2.00;93.40;;;;;;5090602;28;19991;-73
2022/03/01 04:12:52;;;;;;;;;;;1.90;93.50;;;;;;5090836;28;19916;-73
2022/03/01 04:15:17;;;;;;;;;;;1.90;93.50;;;;;;5090570;28;19909;-73
2022/03/01 04:17:43;;;;;;;;;;;1.90;93.80;;;;;;5090378;28;20320;-73
2022/03/01 04:20:09;;;;;;;;;;;1.90;93.60;;;;;;5090712;28;20313;-73
2022/03/01 04:22:35;;;;;;;;;;;1.90;93.60;;;;;;5090375;28;19912;-73
2022/03/01 04:25:01;;;;;;;;;;;1.90;93.50;;;;;;5090290;28;19920;-73
2022/03/01 04:27:26;;;;;;;;;;;1.90;93.50;;;;;;5090283;28;20385;-73
2022/03/01 04:29:52;;;;;;;;;;;1.90;93.50;;;;;;5090060;28;19945;-73
2022/03/01 04:32:17;;;;;;;;;;;1.90;93.50;;;;;;5088972;28;19908;-73
2022/03/01 04:34:43;;;;;;;;;;;1.90;93.50;;;;;;5088992;28;19912;-73
2022/03/01 04:37:09;;;;;;;;;;;1.90;93.50;;;;;;5090126;28;19927;-73
2022/03/01 04:39:35;;;;;;;;;;;1.90;93.50;;;;;;5090381;28;19915;-73
2022/03/01 04:42:01;;;;;;;;;;;1.80;93.50;;;;;;5090070;28;19912;-73
2022/03/01 04:44:26;;;;;;;;;;;1.80;93.50;;;;;;5090016;28;19916;-73
2022/03/01 04:46:52;;;;;;;;;;;1.80;93.50;;;;;;5089864;28;20467;-73
2022/03/01 04:49:17;;;;;;;;;;;1.80;93.50;;;;;;5088591;28;19912;-73
2022/03/01 04:51:43;;;;;;;;;;;1.80;93.50;;;;;;5088347;28;19995;-73
2022/03/01 04:54:08;;;;;;;;;;;1.90;93.50;;;;;;5089825;28;19912;-73
2022/03/01 04:56:34;;;;;;;;;;;1.90;93.50;;;;;;5088332;28;19930;-73
2022/03/01 04:58:59;;;;;;;;;;;1.90;93.50;;;;;;5089783;28;20393;-74
2022/03/01 05:01:25;;;;;;;;;;;2.00;93.50;;;;;;5089557;28;20222;-73
2022/03/01 05:03:51;;;;;;;;;;;2.00;93.50;;;;;;5089331;28;19952;-73
2022/03/01 05:06:16;;;;;;;;;;;2.00;93.40;;;;;;5089464;28;19916;-73
2022/03/01 05:08:42;;;;;;;;;;;1.90;93.30;;;;;;5089382;28;19924;-73
2022/03/01 05:11:07;;;;;;;;;;;1.90;93.30;;;;;;5089594;28;20271;-73
2022/03/01 05:13:33;;;;;;;;;;;1.90;93.30;;;;;;5071247;28;20022;-73
2022/03/01 05:15:58;;;;;;;;;;;1.90;93.30;;;;;;5089314;28;19935;-73
2022/03/01 05:18:24;;;;;;;;;;;1.80;93.30;;;;;;5088037;28;19955;-73
2022/03/01 05:20:49;;;;;;;;;;;1.80;93.30;;;;;;5089218;28;19912;-73
2022/03/01 05:23:15;;;;;;;;;;;1.80;93.30;;;;;;5087844;28;19912;-74
2022/03/01 05:25:41;;;;;;;;;;;1.80;93.30;;;;;;5089077;28;19920;-73
2022/03/01 05:28:07;;;;;;;;;;;1.80;93.30;;;;;;5088931;28;19908;-73
2022/03/01 05:30:32;;;;;;;;;;;1.80;93.30;;;;;;5071038;28;19913;-73
2022/03/01 05:32:58;;;;;;;;;;;1.80;93.20;;;;;;5088981;28;19908;-73
2022/03/01 05:35:25;;;;;;;;;;;1.70;93.20;;;;;;5089135;28;19924;-74
2022/03/01 05:37:54;;;;;;;;;;;1.60;93.20;;;;;;5088791;28;19908;-73
2022/03/01 05:40:21;;;;;;;;;;;1.60;93.30;;;;;;5087707;28;19908;-73
2022/03/01 05:42:47;;;;;;;;;;;1.50;93.30;;;;;;5088903;28;19932;-73
2022/03/01 05:45:12;;;;;;;;;;;1.50;93.40;;;;;;5088687;28;20374;-74
2022/03/01 05:47:39;;;;;;;;;;;1.50;93.40;;;;;;5088787;28;19958;-73
2022/03/01 05:50:04;;;;;;;;;;;1.60;93.40;;;;;;5088565;28;19919;-73
2022/03/01 05:52:30;;;;;;;;;;;1.50;93.30;;;;;;5088760;28;19908;-73
2022/03/01 05:54:56;;;;;;;;;;;1.60;93.30;;;;;;5088646;28;19949;-73
2022/03/01 05:57:27;;;;;;;;;;;1.60;93.30;;;;;;5088506;28;20038;-73
2022/03/01 05:59:53;;;;;;;;;;;1.60;93.30;;;;;;5088253;28;20294;-73
2022/03/01 06:02:19;;;;;;;;;;;1.60;93.30;;;;;;5088610;28;20083;-73
2022/03/01 06:04:44;;;;;;;;;;;1.60;93.30;;;;;;5088465;28;19920;-73
2022/03/01 06:07:10;;;;;;;;;;;1.50;93.30;;;;;;5088488;28;20025;-73
2022/03/01 06:09:35;;;;;;;;;;;1.50;93.40;;;;;;5088431;28;19922;-73
2022/03/01 06:12:01;;;;;;;;;;;1.40;93.40;;;;;;5088402;28;19923;-73
2022/03/01 06:14:26;;;;;;;;;;;1.50;93.40;;;;;;5086955;28;19908;-73
2022/03/01 06:16:52;;;;;;;;;;;1.40;93.40;;;;;;5088497;28;19962;-73
2022/03/01 06:19:18;;;;;;;;;;;1.40;93.40;;;;;;5088364;28;19908;-73
2022/03/01 06:21:43;;;;;;;;;;;1.30;93.40;;;;;;5088295;28;19950;-73
2022/03/01 06:24:09;;;;;;;;;;;1.30;93.50;;;;;;5088272;28;20382;-73
2022/03/01 06:26:34;;;;;;;;;;;1.40;93.60;;;;;;5087030;28;19912;-73
2022/03/01 06:29:00;;;;;;;;;;;1.40;93.50;;;;;;5088048;28;19909;-73
2022/03/01 06:31:26;;;;;;;;;;;1.40;93.50;;;;;;5088204;28;19908;-74
2022/03/01 06:33:51;;;;;;;;;;;1.50;93.40;;;;;;5086764;28;19951;-74
2022/03/01 06:36:17;;;;;;;;;;;1.50;93.30;;;;;;5086639;28;20384;-73
2022/03/01 06:38:42;;;;;;;;;;;1.50;93.20;;;;;;5087947;28;19914;-73
2022/03/01 06:41:08;;;;;;;;;;;1.40;93.20;;;;;;5088085;28;19952;-73
2022/03/01 06:43:33;;;;;;;;;;;1.40;93.30;;;;;;5086888;28;19934;-73
2022/03/01 06:45:59;;;;;;;;;;;1.40;93.30;;;;;;5087653;28;19912;-73
2022/03/01 06:48:25;;;;;;;;;;;1.30;93.40;;;;;;5087834;28;19908;-73
2022/03/01 06:50:50;;;;;;;;;;;1.30;93.40;;;;;;5087227;28;19939;-73
2022/03/01 06:53:17;;;;;;;;;;;1.40;93.40;;;;;;5087652;28;19938;-73
2022/03/01 06:55:43;;;;;;;;;;;1.40;93.40;;;;;;5087817;28;19954;-73
2022/03/01 06:58:09;;;;;;;;;;;1.40;93.40;;;;;;5087654;28;20398;-73
2022/03/01 07:00:35;;;;;;;;;;;1.50;93.40;;;;;;5086214;28;19922;-74
2022/03/01 07:03:00;;;;;;;;;;;1.50;93.30;;;;;;5087811;28;20007;-73
2022/03/01 07:05:26;;;;;;;;;;;1.50;93.30;;;;;;5087640;28;19916;-74
2022/03/01 07:07:51;;;;;;;;;;;1.50;93.40;;;;;;5087539;28;19912;-73
2022/03/01 07:10:17;;;;;;;;;;;1.50;93.40;;;;;;5087695;28;19919;-73
2022/03/01 07:12:43;;;;;;;;;;;1.40;93.30;;;;;;5089883;28;20284;-73
2022/03/01 07:15:09;;;;;;;;;;;1.40;93.20;;;;;;5091316;28;19919;-73
2022/03/01 07:17:35;;;;;;;;;;;1.30;93.20;;;;;;5091298;28;19912;-73
2022/03/01 07:20:01;;;;;;;;;;;1.30;93.30;;;;;;5089736;28;19916;-73
2022/03/01 07:22:26;;;;;;;;;;;1.20;93.30;;;;;;5091292;28;19908;-73
2022/03/01 07:24:52;;;;;;;;;;;1.10;93.40;;;;;;5089757;28;20382;-74
2022/03/01 07:27:17;;;;;;;;;;;1.10;93.50;;;;;;5091202;28;20278;-73
2022/03/01 07:29:43;;;;;;;;;;;1.10;93.60;;;;;;5090840;28;20255;-73
2022/03/01 07:32:08;;;;;;;;;;;1.20;93.60;;;;;;5091864;28;19912;-74
2022/03/01 07:34:35;;;;;;;;;;;1.20;93.60;;;;;;5091879;28;20214;-73
2022/03/01 07:37:01;;;;;;;;;;;1.30;93.60;;;;;;5090019;28;19957;-74
2022/03/01 07:39:27;;;;;;;;;;;1.30;93.50;;;;;;5090913;28;19920;-73
2022/03/01 07:41:52;;;;;;;;;;;1.40;93.50;;;;;;5089814;28;19916;-73
2022/03/01 07:44:18;;;;;;;;;;;1.50;93.50;;;;;;5090850;28;19961;-74
2022/03/01 07:46:44;;;;;;;;;;;1.50;93.50;;;;;;5089156;28;19912;-74
2022/03/01 07:49:10;;;;;;;;;;;1.50;93.50;;;;;;5090568;28;19934;-74
2022/03/01 07:51:35;;;;;;;;;;;1.50;93.40;;;;;;5090419;28;19950;-74
2022/03/01 07:54:01;;;;;;;;;;;1.50;93.40;;;;;;5090525;28;19950;-73
2022/03/01 07:56:26;;;;;;;;;;;1.50;93.40;;;;;;5088963;28;19912;-73
2022/03/01 07:58:52;;;;;;;;;;;1.50;93.50;;;;;;5088928;28;19919;-74
2022/03/01 08:01:18;;;;;;;;;;;1.60;93.50;;;;;;5090140;28;19915;-73
2022/03/01 08:03:44;;;;;;;;;;;1.70;93.70;;;;;;5089576;28;19908;-74
2022/03/01 08:06:10;;;;;;;;;;;1.90;94.00;;;;;;5087959;28;19969;-74
2022/03/01 08:08:35;;;;;;;;;;;2.20;94.40;;;;;;5089504;28;19916;-73
2022/03/01 08:11:01;;;;;;;;;;;2.50;94.40;;;;;;5089599;28;20199;-74
2022/03/01 08:13:27;;;;;;;;;;;2.80;94.10;;;;;;5089620;28;20252;-74
2022/03/01 08:15:52;;;;;;;;;;;3.00;94.20;;;;;;5087964;28;19916;-74
2022/03/01 08:18:18;;;;;;;;;;;3.40;94.30;;;;;;5088768;28;19909;-74
2022/03/01 08:20:43;;;;;;;;;;;3.70;94.20;;;;;;5089501;28;19955;-74
2022/03/01 08:23:09;;;;;;;;;;;4.10;94.20;;;;;;5089327;28;20286;-74
2022/03/01 08:25:35;;;;;;;;;;;4.30;94.20;;;;;;5089070;28;19982;-72
2022/03/01 08:28:01;;;;;;;;;;;4.60;94.40;;;;;;5089312;28;19916;-74
2022/03/01 08:30:27;;;;;;;;;;;5.00;94.60;;;;;;5088996;28;20294;-74
2022/03/01 08:32:52;;;;;;;;;;;5.40;94.90;;;;;;5089072;28;20305;-74
2022/03/01 08:35:25;;;;;;;;;;;6.00;95.40;;;;;;5088968;28;19924;-74
2022/03/01 08:37:52;;;;;;;;;;;6.70;95.30;;;;;;5086948;28;19924;-75
2022/03/01 08:40:22;;;;;;;;;;;7.40;95.10;;;;;;5088991;28;20008;-75
2022/03/01 08:42:48;;;;;;;;;;;8.20;94.90;;;;;;5088672;28;19912;-75
2022/03/01 08:45:14;;;;;;;;;;;8.90;94.90;;;;;;5087372;28;20342;-73
2022/03/01 08:47:40;;;;;;;;;;;9.50;94.50;;;;;;5088987;28;19915;-75
2022/03/01 08:50:06;;;;;;;;;;;9.90;94.20;;;;;;5088694;28;19952;-73
2022/03/01 08:52:31;;;;;;;;;;;10.50;94.30;;;;;;5086845;28;20389;-76
2022/03/01 08:54:57;;;;;;;;;;;11.00;94.50;;;;;;5088267;28;19924;-73
2022/03/01 08:57:22;;;;;;;;;;;11.40;94.80;;;;;;5088724;28;19923;-73
2022/03/01 08:59:48;;;;;;;;;;;12.00;95.20;;;;;;5087903;28;19922;-72
2022/03/01 09:02:17;;;;;;;;;;;12.50;95.40;;;;;;5088322;28;19912;-72
2022/03/01 09:04:43;;;;;;;;;;;13.00;95.70;;;;;;5087228;28;19920;-73
2022/03/01 09:07:08;;;;;;;;;;;13.70;95.60;;;;;;5087793;28;19999;-72
2022/03/01 09:09:34;;;;;;;;;;;14.30;95.50;;;;;;5087794;28;19913;-73
2022/03/01 09:12:00;;;;;;;;;;;14.90;95.30;;;;;;5087731;28;19908;-73
2022/03/01 09:14:25;;;;;;;;;;;15.40;94.90;;;;;;5086964;28;20148;-73
2022/03/01 09:16:51;;;;;;;;;;;15.90;94.80;;;;;;5085681;28;19984;-72
2022/03/01 09:19:16;;;;;;;;;;;16.40;94.80;;;;;;5086973;28;19931;-73
2022/03/01 09:21:42;;;;;;;;;;;16.80;95.00;;;;;;5088719;28;20354;-72
2022/03/01 09:24:08;;;;;;;;;;;17.20;94.90;;;;;;5087077;28;20010;-72
2022/03/01 09:26:34;;;;;;;;;;;17.50;94.70;;;;;;5087822;28;20011;-73
2022/03/01 09:28:59;;;;;;;;;;;17.90;94.50;;;;;;5087532;28;19913;-72
2022/03/01 09:31:25;;;;;;;;;;;18.10;94.50;;;;;;5087920;28;19908;-74
2022/03/01 09:33:51;;;;;;;;;;;18.40;94.50;;;;;;5088121;28;19952;-74
2022/03/01 09:36:16;;;;;;;;;;;18.70;94.50;;;;;;5087511;28;20374;-74
2022/03/01 09:38:42;;;;;;;;;;;19.00;94.30;;;;;;5087959;28;20278;-74
2022/03/01 09:41:08;;;;;;;;;;;19.30;94.20;;;;;;5086711;28;19908;-72
2022/03/01 09:43:38;;;;;;;;;;;19.50;93.60;;;;;;5087477;28;19912;-74
2022/03/01 09:46:05;;;;;;;;;;;19.60;93.60;;;;;;5088046;28;19918;-73
2022/03/01 09:48:30;;;;;;;;;;;19.70;93.40;;;;;;5087824;28;19919;-73
2022/03/01 09:50:57;;;;;;;;;;;19.90;93.50;;;;;;5087800;28;19912;-74
2022/03/01 09:53:23;;;;;;;;;;;20.10;93.70;;;;;;5087893;28;19933;-73
2022/03/01 09:55:50;;;;;;;;;;;20.40;94.20;;;;;;5086775;28;20279;-74
2022/03/01 09:58:16;;;;;;;;;;;20.70;94.60;;;;;;5085897;28;19999;-73
2022/03/01 10:00:43;;;;;;;;;;;21.10;94.50;;;;;;5085283;28;20015;-73
2022/03/01 10:03:09;;;;;;;;;;;21.10;94.80;;;;;;5085655;28;19916;-74
2022/03/01 10:05:36;;;;;;;;;;;21.20;95.00;;;;;;5085895;28;20174;-73
2022/03/01 10:08:08;;;;;;;;;;;21.30;95.30;;;;;;5085466;28;19911;-74
2022/03/01 10:10:42;;;;;;;;;;;21.30;95.00;;;;;;5087664;28;20339;-74
2022/03/01 10:13:08;;;;;;;;;;;21.00;95.20;;;;;;5087125;28;19995;-74
2022/03/01 10:15:33;;;;;;;;;;;21.00;95.80;;;;;;5088072;28;19992;-73
2022/03/01 10:18:09;;;;;;;;;;;21.20;96.00;;;;;;5088458;28;19918;-73
2022/03/01 10:20:35;;;;;;;;;;;21.40;95.70;;;;;;5068321;28;19919;-74
2022/03/01 10:23:01;;;;;;;;;;;21.70;95.50;;;;;;5067184;28;19916;-74
2022/03/01 10:25:27;;;;;;;;;;;21.80;95.20;;;;;;5087370;28;19945;-74
2022/03/01 10:27:54;;;;;;;;;;;22.00;94.90;;;;;;5085792;28;19923;-73
2022/03/01 10:30:29;;;;;;;;;;;22.20;95.10;;;;;;5086884;28;19915;-73
2022/03/01 10:33:02;;;;;;;;;;;22.40;94.90;;;;;;5087212;28;19913;-73
2022/03/01 10:35:28;;;;;;;;;;;22.50;94.70;;;;;;5083835;28;19916;-74
2022/03/01 10:37:54;;;;;;;;;;;22.50;94.50;;;;;;5086313;28;19965;-75
2022/03/01 10:40:23;;;;;;;;;;;22.60;94.50;;;;;;5086566;28;20101;-74
2022/03/01 10:43:01;;;;;;;;;;;22.80;94.20;;;;;;5085425;28;19916;-74
2022/03/01 10:45:34;;;;;;;;;;;23.10;93.60;;;;;;5086055;28;19912;-75
2022/03/01 10:47:59;;;;;;;;;;;23.10;93.60;;;;;;5090550;28;19912;-74
2022/03/01 10:50:28;;;;;;;;;;;23.00;93.20;;;;;;5091893;28;19939;-74
2022/03/01 10:52:54;;;;;;;;;;;23.10;93.50;;;;;;5091510;28;19966;-75
2022/03/01 10:55:28;;;;;;;;;;;23.20;93.30;;;;;;5091188;28;19963;-75
2022/03/01 10:58:04;;;;;;;;;;;23.30;93.20;;;;;;5089404;28;19912;-74
2022/03/01 11:00:30;;;;;;;;;;;23.30;93.00;;;;;;5090634;28;19984;-74
2022/03/01 11:02:55;;;;;;;;;;;23.30;93.00;;;;;;5091096;28;19913;-75
2022/03/01 11:05:21;;;;;;;;;;;23.20;92.00;;;;;;5091856;28;19918;-73
2022/03/01 11:07:48;;;;;;;;;;;23.10;92.10;;;;;;5091826;28;19908;-75
2022/03/01 11:10:15;;;;;;;;;;;22.90;92.50;;;;;;5088835;28;19927;-74
2022/03/01 11:12:42;;;;;;;;;;;22.80;92.70;;;;;;5090592;28;20648;-74
2022/03/01 11:15:08;;;;;;;;;;;22.70;93.10;;;;;;5085888;28;19912;-72
2022/03/01 11:17:43;;;;;;;;;;;22.90;93.00;;;;;;5090782;28;19931;-75
2022/03/01 11:20:13;;;;;;;;;;;22.90;91.50;;;;;;5089603;28;19916;-74
2022/03/01 11:22:42;;;;;;;;;;;23.00;91.70;;;;;;5091292;28;19913;-74
2022/03/01 11:25:14;;;;;;;;;;;22.80;91.80;;;;;;5091081;28;19918;-74
2022/03/01 11:27:48;;;;;;;;;;;22.70;92.40;;;;;;5088548;28;19919;-75
2022/03/01 11:30:14;;;;;;;;;;;22.60;92.40;;;;;;5090041;28;19912;-74
2022/03/01 11:32:42;;;;;;;;;;;22.00;91.90;;;;;;5091080;28;19914;-75
2022/03/01 11:35:14;;;;;;;;;;;21.30;91.90;;;;;;5090664;28;19916;-73
2022/03/01 11:37:42;;;;;;;;;;;21.00;92.40;;;;;;5090685;28;19912;-73
2022/03/01 11:40:08;;;;;;;;;;;20.30;91.70;;;;;;5091318;28;19962;-74
2022/03/01 11:42:34;;;;;;;;;;;19.40;91.40;;;;;;5090009;28;20464;-75
2022/03/01 11:45:10;;;;;;;;;;;18.70;92.00;;;;;;5091428;28;19951;-73
2022/03/01 11:47:35;;;;;;;;;;;18.40;92.60;;;;;;5090143;28;19909;-74
2022/03/01 11:50:12;;;;;;;;;;;18.80;93.20;;;;;;5091536;28;19966;-75
2022/03/01 11:52:48;;;;;;;;;;;19.00;93.30;;;;;;5091696;28;19908;-74
2022/03/01 11:55:13;;;;;;;;;;;19.30;92.90;;;;;;5091076;28;20006;-74
2022/03/01 11:57:39;;;;;;;;;;;19.40;92.30;;;;;;5089970;28;20489;-74
2022/03/01 12:00:05;;;;;;;;;;;19.80;91.90;;;;;;5088793;28;19934;-70
2022/03/01 12:02:33;;;;;;;;;;;19.90;91.30;;;;;;5090372;28;19965;-74
2022/03/01 12:04:59;;;;;;;;;;;20.00;91.50;;;;;;5090788;28;19919;-75
2022/03/01 12:07:26;;;;;;;;;;;20.60;91.70;;;;;;5090173;28;19916;-74
2022/03/01 12:10:03;;;;;;;;;;;21.20;90.40;;;;;;5089785;28;19929;-74
2022/03/01 12:12:33;;;;;;;;;;;21.60;90.30;;;;;;5081140;28;19912;-75
2022/03/01 12:14:59;;;;;;;;;;;21.90;89.70;;;;;;5090002;28;19914;-74
2022/03/01 12:17:25;;;;;;;;;;;21.60;88.80;;;;;;5090563;28;19916;-75
2022/03/01 12:20:00;;;;;;;;;;;21.60;90.20;;;;;;5089497;28;19916;-75
2022/03/01 12:22:26;;;;;;;;;;;21.60;90.30;;;;;;5089769;28;19908;-74
2022/03/01 12:25:06;;;;;;;;;;;21.20;90.00;;;;;;5090021;28;20382;-74
2022/03/01 12:27:32;;;;;;;;;;;20.50;86.60;;;;;;5086392;28;20263;-75
2022/03/01 12:30:01;;;;;;;;;;;19.30;85.10;;;;;;5090654;28;20049;-73
2022/03/01 12:32:26;;;;;;;;;;;18.10;84.10;;;;;;5089557;28;19950;-73
2022/03/01 12:34:52;;;;;;;;;;;17.20;86.20;;;;;;5089744;28;20319;-74
2022/03/01 12:37:18;;;;;;;;;;;16.60;86.50;;;;;;5088223;28;19950;-74
2022/03/01 12:39:45;;;;;;;;;;;16.30;87.70;;;;;;5088594;28;19916;-74
2022/03/01 12:42:11;;;;;;;;;;;16.50;89.60;;;;;;5085883;28;19953;-74
2022/03/01 12:44:36;;;;;;;;;;;17.00;90.30;;;;;;5079492;28;19924;-75
2022/03/01 12:47:11;;;;;;;;;;;17.70;90.20;;;;;;5078592;28;19913;-74
2022/03/01 12:49:37;;;;;;;;;;;18.20;88.90;;;;;;5080668;28;19995;-75
2022/03/01 12:52:03;;;;;;;;;;;18.30;86.10;;;;;;5080892;28;20002;-74
2022/03/01 12:54:29;;;;;;;;;;;18.10;84.30;;;;;;5078242;28;20374;-74
2022/03/01 12:56:56;;;;;;;;;;;18.20;83.60;;;;;;5080986;28;19908;-74
2022/03/01 12:59:25;;;;;;;;;;;18.60;83.50;;;;;;5080383;28;19912;-74
2022/03/01 13:01:59;;;;;;;;;;;19.00;83.40;;;;;;5079267;28;19908;-73
2022/03/01 13:04:26;;;;;;;;;;;19.30;84.20;;;;;;5079522;28;19912;-74
2022/03/01 13:06:53;;;;;;;;;;;19.30;84.50;;;;;;5077646;28;20414;-65
2022/03/01 13:09:19;;;;;;;;;;;19.20;84.10;;;;;;5062862;28;20258;-75
2022/03/01 13:11:45;;;;;;;;;;;19.30;85.20;;;;;;5084188;28;19916;-77
2022/03/01 13:14:16;;;;;;;;;;;19.40;85.10;;;;;;5080845;28;19973;-76
2022/03/01 13:19:34;;;;;;;;;;;19.30;83.70;;;;;;5078080;28;19991;-77
2022/03/01 13:22:06;;;;;;;;;;;19.30;83.30;;;;;;5087787;28;19943;-76
2022/03/01 13:24:34;;;;;;;;;;;19.30;82.90;;;;;;5088100;28;19920;-76
2022/03/01 13:27:01;;;;;;;;;;;19.50;83.10;;;;;;5085313;28;20023;-76
2022/03/01 13:29:28;;;;;;;;;;;19.60;82.50;;;;;;5075438;28;19919;-77
2022/03/01 13:32:03;;;;;;;;;;;19.70;82.50;;;;;;5109030;27;19926;-76
2022/03/01 13:34:29;;;;;;;;;;;19.50;81.90;;;;;;5106250;28;19916;-76
2022/03/01 13:36:54;;;;;;;;;;;19.20;82.30;;;;;;5106506;28;19918;-76
2022/03/01 13:39:20;;;;;;;;;;;18.70;81.40;;;;;;5104860;28;19991;-76
2022/03/01 13:42:06;;;;;;;;;;;18.30;81.40;;;;;;5105720;28;19917;-77
2022/03/01 13:44:34;;;;;;;;;;;18.10;82.40;;;;;;5099970;28;19908;-77
2022/03/01 13:47:02;;;;;;;;;;;18.00;82.30;;;;;;5105809;28;19908;-76
2022/03/01 13:49:38;;;;;;;;;;;18.00;82.40;;;;;;5106455;28;19912;-77
2022/03/01 13:52:14;;;;;;;;;;;18.00;81.40;;;;;;5104866;28;19916;-76
2022/03/01 13:54:42;;;;;;;;;;;17.90;80.50;;;;;;5097004;28;19908;-77
2022/03/01 13:57:11;;;;;;;;;;;17.60;79.70;;;;;;5105883;28;19968;-75
2022/03/01 13:59:37;;;;;;;;;;;17.30;77.60;;;;;;5104750;28;19999;-76
2022/03/01 14:02:02;;;;;;;;;;;16.90;78.00;;;;;;5104401;28;20386;-76
2022/03/01 14:04:28;;;;;;;;;;;16.80;78.30;;;;;;5103599;28;19923;-75
2022/03/01 14:06:55;;;;;;;;;;;16.60;78.20;;;;;;5106194;28;20006;-76
2022/03/01 14:09:20;;;;;;;;;;;16.50;78.60;;;;;;5106424;28;19926;-77
2022/03/01 14:11:59;;;;;;;;;;;16.30;78.20;;;;;;5105764;28;19912;-76
2022/03/01 14:14:25;;;;;;;;;;;16.00;77.00;;;;;;5099111;28;20281;-76
2022/03/01 14:16:51;;;;;;;;;;;15.60;76.20;;;;;;5104971;28;19927;-76
2022/03/01 14:19:18;;;;;;;;;;;15.20;76.20;;;;;;5105845;28;19909;-76
2022/03/01 14:21:45;;;;;;;;;;;14.70;75.20;;;;;;5104785;28;19908;-75
2022/03/01 14:24:11;;;;;;;;;;;14.30;75.40;;;;;;5105782;28;19992;-75
2022/03/01 14:26:36;;;;;;;;;;;13.90;74.70;;;;;;5104834;28;20338;-75